createdAt,value
2023-05-12T00:02:32.967Z,0.00
2023-05-12T00:05:04.134Z,0.60
2023-05-12T00:07:32.704Z,0.10
2023-05-12T00:10:04.471Z,0.75
2023-05-12T00:12:33.136Z,0.15
2023-05-12T00:15:04.920Z,0.08
2023-05-12T00:17:34.570Z,0.20
2023-05-12T00:20:06.039Z,0.10
2023-05-12T00:22:37.405Z,0.68
2023-05-12T00:25:08.418Z,0.10
2023-05-12T00:27:40.166Z,0.45
2023-05-12T00:30:18.117Z,0.25
2023-05-12T00:32:48.625Z,0.17
2023-05-12T00:35:18.373Z,0.20
2023-05-12T00:37:47.657Z,0.20
2023-05-12T00:40:18.987Z,0.20
2023-05-12T00:42:47.931Z,0.10
2023-05-12T00:45:18.262Z,0.47
2023-05-12T00:47:49.403Z,0.52
2023-05-12T00:50:21.416Z,0.10
2023-05-12T00:52:52.399Z,0.28
2023-05-12T00:55:22.651Z,0.10
2023-05-12T00:57:54.774Z,0.73
2023-05-12T01:00:27.692Z,0.45
2023-05-12T01:02:58.752Z,0.57
2023-05-12T01:05:35.173Z,1.35
2023-05-12T01:08:05.757Z,0.25
2023-05-12T01:10:36.351Z,0.20
2023-05-12T01:13:05.120Z,1.55
2023-05-12T01:15:45.065Z,0.30
2023-05-12T01:18:20.967Z,0.63
2023-05-12T01:20:52.504Z,0.40
2023-05-12T01:23:32.988Z,0.30
2023-05-12T01:26:07.093Z,0.85
2023-05-12T01:28:37.039Z,0.10
2023-05-12T01:31:09.461Z,0.10
2023-05-12T01:33:42.080Z,0.70
2023-05-12T01:36:14.318Z,0.75
2023-05-12T01:38:43.525Z,0.43
2023-05-12T01:41:13.590Z,0.75
2023-05-12T01:43:43.425Z,0.10
2023-05-12T01:46:15.246Z,0.20
2023-05-12T01:48:46.779Z,0.57
2023-05-12T01:51:16.234Z,0.22
2023-05-12T01:53:45.148Z,0.15
2023-05-12T01:56:15.294Z,0.17
2023-05-12T01:58:44.184Z,0.30
2023-05-12T02:01:12.998Z,0.65
2023-05-12T02:03:41.546Z,0.55
2023-05-12T02:06:15.139Z,0.10
2023-05-12T02:08:44.268Z,0.20
2023-05-12T02:11:14.571Z,0.15
2023-05-12T02:13:44.852Z,0.13
2023-05-12T02:16:13.927Z,1.17
2023-05-12T02:18:43.204Z,0.10
2023-05-12T02:21:11.695Z,0.20
2023-05-12T02:23:40.353Z,0.10
2023-05-12T02:26:12.661Z,0.50
2023-05-12T02:28:42.636Z,0.55
2023-05-12T02:31:11.919Z,1.65
2023-05-12T02:33:40.559Z,0.35
2023-05-12T02:36:13.343Z,0.32
2023-05-12T02:38:43.607Z,1.08
2023-05-12T02:41:15.180Z,0.28
2023-05-12T02:43:45.740Z,0.08
2023-05-12T02:46:16.283Z,0.08
2023-05-12T02:48:45.417Z,0.30
2023-05-12T02:51:14.962Z,0.22
2023-05-12T02:53:43.912Z,0.55
2023-05-12T02:56:13.840Z,0.15
2023-05-12T02:58:43.429Z,0.45
2023-05-12T03:01:13.874Z,0.25
2023-05-12T03:03:43.942Z,0.35
2023-05-12T03:06:14.499Z,0.35
2023-05-12T03:08:46.654Z,0.10
2023-05-12T03:11:15.835Z,0.45
2023-05-12T03:13:44.751Z,0.47
2023-05-12T03:16:20.345Z,0.10
2023-05-12T03:18:51.938Z,0.17
2023-05-12T03:21:20.650Z,0.10
2023-05-12T03:23:55.710Z,0.00
2023-05-12T03:26:24.703Z,0.10
2023-05-12T03:28:53.534Z,0.32
2023-05-12T03:31:28.164Z,0.10
2023-05-12T03:33:59.976Z,0.10
2023-05-12T03:36:31.840Z,0.75
2023-05-12T03:39:02.947Z,0.10
2023-05-12T03:41:33.322Z,0.05
2023-05-12T03:44:02.332Z,0.47
2023-05-12T03:46:33.598Z,0.08
2023-05-12T03:49:02.529Z,0.10
2023-05-12T03:51:31.532Z,0.15
2023-05-12T03:54:01.840Z,0.52
2023-05-12T03:56:33.576Z,0.10
2023-05-12T03:59:04.786Z,0.10
2023-05-12T04:01:34.587Z,0.00
2023-05-12T04:04:04.549Z,0.00
2023-05-12T04:06:35.032Z,0.10
2023-05-12T04:09:05.532Z,0.10
2023-05-12T04:11:36.074Z,0.10
2023-05-12T04:14:06.003Z,0.20
2023-05-12T04:16:38.357Z,0.00
2023-05-12T04:19:12.555Z,0.10
2023-05-12T04:21:41.481Z,0.10
2023-05-12T04:24:10.227Z,0.10
2023-05-12T04:26:39.728Z,0.00
2023-05-12T04:29:09.276Z,0.10
2023-05-12T04:31:39.345Z,0.10
2023-05-12T04:34:08.173Z,0.10
2023-05-12T04:36:37.306Z,0.25
2023-05-12T04:39:07.662Z,0.85
2023-05-12T04:41:36.678Z,0.10
2023-05-12T04:44:05.913Z,0.10
2023-05-12T04:46:34.938Z,0.10
2023-05-12T04:49:13.152Z,0.10
2023-05-12T04:51:44.583Z,0.00
2023-05-12T04:54:14.955Z,0.10
2023-05-12T04:56:54.317Z,0.25
2023-05-12T04:59:27.263Z,0.20
2023-05-12T05:01:56.554Z,0.10
2023-05-12T05:04:30.032Z,0.38
2023-05-12T05:06:59.499Z,0.10
2023-05-12T05:09:33.414Z,0.32
2023-05-12T05:12:03.815Z,0.10
2023-05-12T05:14:34.146Z,0.08
2023-05-12T05:17:08.062Z,0.10
2023-05-12T05:19:53.091Z,0.10
2023-05-12T05:22:24.265Z,0.57
2023-05-12T05:24:55.296Z,0.10
2023-05-12T05:27:24.494Z,0.65
2023-05-12T05:29:55.397Z,0.00
2023-05-12T05:32:24.825Z,2.38
2023-05-12T05:34:59.015Z,0.55
2023-05-12T05:37:28.490Z,1.27
2023-05-12T05:39:58.282Z,0.47
2023-05-12T05:42:27.062Z,1.98
2023-05-12T05:44:58.681Z,0.17
2023-05-12T05:47:28.356Z,0.20
2023-05-12T05:50:00.469Z,0.40
2023-05-12T05:52:29.896Z,0.10
2023-05-12T05:54:58.526Z,0.63
2023-05-12T05:57:30.315Z,0.10
2023-05-12T06:00:01.110Z,0.50
2023-05-12T06:02:29.865Z,0.10
2023-05-12T06:05:00.282Z,0.15
2023-05-12T06:07:29.595Z,0.10
2023-05-12T06:09:58.364Z,0.10
2023-05-12T06:12:27.133Z,0.10
2023-05-12T06:14:55.676Z,0.10
2023-05-12T06:17:24.893Z,0.25
2023-05-12T06:19:54.312Z,0.03
2023-05-12T06:22:25.002Z,0.20
2023-05-12T06:24:54.151Z,0.20
2023-05-12T06:27:23.814Z,0.20
2023-05-12T06:29:57.714Z,0.00
2023-05-12T06:32:29.861Z,0.10
2023-05-12T06:35:01.903Z,0.25
2023-05-12T06:37:33.315Z,0.00
2023-05-12T06:40:02.748Z,0.30
2023-05-12T06:42:32.830Z,0.30
2023-05-12T06:45:03.732Z,0.10
2023-05-12T06:47:34.150Z,0.08
2023-05-12T06:50:03.596Z,0.30
2023-05-12T06:52:34.351Z,0.10
2023-05-12T06:55:04.939Z,0.10
2023-05-12T06:57:34.078Z,0.10
2023-05-12T07:00:05.681Z,0.10
2023-05-12T07:02:34.137Z,0.00
2023-05-12T07:05:03.113Z,0.10
2023-05-12T07:07:33.604Z,0.30
2023-05-12T07:10:02.338Z,0.10
2023-05-12T07:12:32.314Z,0.00
2023-05-12T07:15:00.929Z,0.43
2023-05-12T07:17:30.562Z,0.10
2023-05-12T07:20:01.752Z,0.28
2023-05-12T07:22:30.009Z,0.10
2023-05-12T07:25:01.740Z,0.10
2023-05-12T07:27:30.783Z,0.10
2023-05-12T07:29:59.334Z,0.05
2023-05-12T07:32:29.375Z,0.00
2023-05-12T07:34:57.802Z,0.10
2023-05-12T07:37:26.238Z,0.35
2023-05-12T07:39:54.860Z,0.10
2023-05-12T07:42:25.010Z,0.35
2023-05-12T07:44:55.879Z,0.25
2023-05-12T07:47:24.661Z,0.20
2023-05-12T07:49:53.399Z,0.10
2023-05-12T07:52:22.006Z,0.10
2023-05-12T07:54:50.439Z,0.20
2023-05-12T07:57:18.772Z,0.10
2023-05-12T07:59:49.796Z,0.13
2023-05-12T08:02:18.568Z,0.10
2023-05-12T08:04:47.792Z,0.00
2023-05-12T08:07:17.609Z,0.28
2023-05-12T08:09:46.147Z,0.10
2023-05-12T08:12:14.718Z,0.00
2023-05-12T08:14:44.377Z,0.00
2023-05-12T08:17:14.413Z,0.10
2023-05-12T08:19:42.863Z,0.10
2023-05-12T08:22:11.657Z,0.00
2023-05-12T08:24:41.977Z,0.00
2023-05-12T08:27:11.655Z,0.10
2023-05-12T08:29:43.577Z,0.13
2023-05-12T08:32:14.435Z,0.00
2023-05-12T08:34:42.840Z,0.20
2023-05-12T08:37:11.797Z,0.43
2023-05-12T08:39:40.911Z,0.10
2023-05-12T08:42:31.688Z,0.20
2023-05-12T08:45:02.793Z,0.00
2023-05-12T08:47:38.069Z,0.43
2023-05-12T08:50:08.261Z,0.20
2023-05-12T08:52:37.327Z,0.00
2023-05-12T08:55:06.917Z,0.30
2023-05-12T08:57:36.943Z,0.25
2023-05-12T09:00:10.098Z,0.00
2023-05-12T09:02:53.260Z,0.38
2023-05-12T09:05:24.233Z,2.27
2023-05-12T09:07:55.892Z,0.32
2023-05-12T09:10:35.115Z,0.08
2023-05-12T09:13:09.842Z,0.10
2023-05-12T09:15:45.077Z,0.40
2023-05-12T09:18:14.902Z,0.35
2023-05-12T09:20:44.068Z,0.10
2023-05-12T09:23:20.954Z,0.20
2023-05-12T09:26:01.805Z,3.30
2023-05-12T09:28:37.581Z,4.10
2023-05-12T09:31:17.269Z,2.92
2023-05-12T09:33:47.586Z,3.30
2023-05-12T09:36:19.490Z,3.15
2023-05-12T09:38:48.355Z,2.72
2023-05-12T09:41:24.343Z,3.35
2023-05-12T09:43:55.960Z,2.75
2023-05-12T09:46:27.036Z,3.47
2023-05-12T09:49:00.502Z,2.97
2023-05-12T09:51:31.181Z,3.13
2023-05-12T09:54:00.950Z,3.45
2023-05-12T09:56:32.520Z,3.28
2023-05-12T09:59:04.584Z,3.30
2023-05-12T10:01:34.124Z,3.80
2023-05-12T10:04:09.285Z,3.55
2023-05-12T10:09:16.373Z,3.70
2023-05-12T10:11:45.444Z,3.67
2023-05-12T10:14:15.739Z,3.75
2023-05-12T10:16:47.705Z,4.60
2023-05-12T10:19:18.876Z,4.60
2023-05-12T10:21:51.402Z,4.18
2023-05-12T10:24:22.029Z,5.53
2023-05-12T10:26:50.915Z,5.90
2023-05-12T10:29:19.915Z,5.20
2023-05-12T10:31:49.304Z,4.55
2023-05-12T10:34:20.219Z,5.40
2023-05-12T10:36:50.403Z,5.50
2023-05-12T10:39:19.728Z,5.28
2023-05-12T10:41:48.384Z,5.18
2023-05-12T10:44:27.633Z,4.15
2023-05-12T10:46:59.528Z,4.20
2023-05-12T10:49:40.265Z,4.15
2023-05-12T10:52:08.863Z,3.42
2023-05-12T10:54:41.803Z,4.00
2023-05-12T10:57:18.305Z,3.40
2023-05-12T10:59:52.114Z,4.60
2023-05-12T11:02:27.496Z,4.05
2023-05-12T11:07:30.484Z,4.07
2023-05-12T11:10:01.985Z,3.20
2023-05-12T11:12:33.395Z,3.92
2023-05-12T11:15:03.380Z,3.60
2023-05-12T11:17:32.747Z,4.03
2023-05-12T11:20:02.762Z,3.22
2023-05-12T11:22:31.592Z,3.50
2023-05-12T11:24:59.990Z,3.00
2023-05-12T11:27:29.735Z,2.85
2023-05-12T11:29:59.971Z,2.53
2023-05-12T11:32:29.858Z,2.90
2023-05-12T11:35:15.336Z,2.35
2023-05-12T11:37:45.214Z,3.60
2023-05-12T11:40:19.939Z,2.60
2023-05-12T11:45:36.197Z,1.95
2023-05-12T11:48:09.268Z,1.90
2023-05-12T11:50:41.481Z,2.00
2023-05-12T11:53:15.145Z,1.58
2023-05-12T11:55:50.114Z,2.00
2023-05-12T11:58:22.914Z,1.75
2023-05-12T12:00:52.711Z,1.80
2023-05-12T12:03:21.341Z,1.98
2023-05-12T12:06:02.411Z,1.30
2023-05-12T12:08:31.977Z,1.52
2023-05-12T12:11:03.464Z,1.40
2023-05-12T12:13:32.959Z,1.40
2023-05-12T12:16:01.958Z,1.67
2023-05-12T12:18:30.428Z,1.40
2023-05-12T12:21:01.052Z,1.50
2023-05-12T12:23:35.308Z,1.27
2023-05-12T12:26:16.292Z,1.80
2023-05-12T12:28:44.734Z,1.60
2023-05-12T12:31:14.756Z,1.50
2023-05-12T12:33:43.344Z,1.25
2023-05-12T12:36:13.345Z,1.30
2023-05-12T12:38:42.867Z,0.93
2023-05-12T12:41:11.231Z,1.63
2023-05-12T12:43:40.056Z,1.50
2023-05-12T12:46:10.059Z,1.52
2023-05-12T12:48:39.734Z,1.60
2023-05-12T12:51:08.251Z,1.27
2023-05-12T12:53:37.958Z,1.88
2023-05-12T12:56:09.654Z,1.45
2023-05-12T12:58:39.425Z,1.35
2023-05-12T13:01:08.543Z,1.40
2023-05-12T13:03:37.169Z,1.38
2023-05-12T13:06:05.852Z,1.60
2023-05-12T13:08:35.052Z,1.60
2023-05-12T13:11:06.218Z,1.63
2023-05-12T13:13:35.283Z,1.52
2023-05-12T13:16:04.752Z,1.50
2023-05-12T13:18:33.381Z,1.50
2023-05-12T13:21:02.313Z,1.50
2023-05-12T13:23:31.011Z,1.33
2023-05-12T13:25:59.916Z,1.40
2023-05-12T13:28:30.218Z,1.05
2023-05-12T13:30:59.041Z,1.15
2023-05-12T13:33:27.712Z,1.48
2023-05-12T13:35:56.504Z,1.10
2023-05-12T13:38:27.358Z,1.15
2023-05-12T13:40:55.779Z,1.00
2023-05-12T13:43:24.717Z,1.08
2023-05-12T13:45:54.809Z,1.15
2023-05-12T13:48:23.490Z,1.00
2023-05-12T13:50:52.712Z,1.02
2023-05-12T13:53:22.038Z,0.85
2023-05-12T13:55:50.586Z,1.08
2023-05-12T13:58:19.575Z,1.10
2023-05-12T14:00:49.091Z,1.33
2023-05-12T14:03:19.025Z,1.10
2023-05-12T14:05:48.008Z,1.23
2023-05-12T14:08:16.644Z,0.98
2023-05-12T14:10:45.655Z,1.20
2023-05-12T14:13:14.383Z,0.90
2023-05-12T14:15:49.391Z,1.30
2023-05-12T14:18:21.099Z,1.00
2023-05-12T14:20:50.132Z,0.80
2023-05-12T14:23:18.356Z,1.10
2023-05-12T14:25:47.598Z,1.10
2023-05-12T14:28:16.289Z,1.23
2023-05-12T14:30:45.868Z,0.90
2023-05-12T14:33:14.286Z,1.08
2023-05-12T14:35:52.851Z,0.82
2023-05-12T14:38:24.610Z,0.85
2023-05-12T14:40:53.336Z,0.85
2023-05-12T14:43:23.407Z,1.08
2023-05-12T14:45:54.725Z,1.40
2023-05-12T14:48:23.747Z,0.80
2023-05-12T14:50:56.105Z,1.00
2023-05-12T14:53:25.178Z,1.08
2023-05-12T14:55:54.714Z,0.90
2023-05-12T14:58:24.128Z,0.95
2023-05-12T15:00:53.084Z,1.00
2023-05-12T15:03:21.901Z,0.80
2023-05-12T15:08:24.024Z,1.10
2023-05-12T15:10:53.711Z,0.90
2023-05-12T15:13:22.790Z,1.58
2023-05-12T15:15:52.979Z,1.13
2023-05-12T15:18:24.697Z,1.00
2023-05-12T15:20:53.035Z,0.90
2023-05-12T15:23:21.298Z,1.10
2023-05-12T15:25:50.943Z,0.90
2023-05-12T15:28:19.090Z,1.00
2023-05-12T15:30:56.107Z,1.00
2023-05-12T15:33:25.096Z,1.00
2023-05-12T15:35:55.211Z,0.95
2023-05-12T15:38:23.758Z,1.40
2023-05-12T15:40:54.099Z,1.20
2023-05-12T15:43:22.408Z,1.20
2023-05-12T15:45:51.168Z,1.10
2023-05-12T15:48:19.426Z,0.80
2023-05-12T15:50:48.500Z,1.10
2023-05-12T15:53:18.704Z,1.27
2023-05-12T15:55:47.324Z,0.88
2023-05-12T15:58:17.684Z,1.02
2023-05-12T16:00:46.648Z,0.95
2023-05-12T16:03:15.168Z,1.00
2023-05-12T16:05:44.216Z,1.00
2023-05-12T16:08:13.221Z,1.08
2023-05-12T16:10:42.433Z,1.30
2023-05-12T16:13:11.516Z,1.40
2023-05-12T16:15:42.104Z,1.25
2023-05-12T16:18:11.502Z,1.20
2023-05-12T16:20:41.724Z,1.20
2023-05-12T16:23:12.207Z,1.00
2023-05-12T16:25:42.054Z,1.45
2023-05-12T16:28:10.436Z,1.58
2023-05-12T16:30:39.318Z,1.55
2023-05-12T16:33:09.692Z,1.15
2023-05-12T16:35:38.955Z,1.20
2023-05-12T16:38:08.121Z,1.38
2023-05-12T16:40:38.822Z,1.35
2023-05-12T16:43:07.356Z,1.30
2023-05-12T16:45:36.239Z,1.58
2023-05-12T16:48:05.101Z,1.23
2023-05-12T16:50:35.682Z,1.38
2023-05-12T16:53:04.141Z,1.35
2023-05-12T16:55:32.642Z,2.30
2023-05-12T16:58:01.742Z,1.40
2023-05-12T17:00:31.653Z,1.42
2023-05-12T17:03:02.388Z,1.58
2023-05-12T17:05:32.611Z,1.60
2023-05-12T17:08:03.673Z,1.38
2023-05-12T17:10:33.842Z,1.70
2023-05-12T17:13:02.547Z,1.60
2023-05-12T17:15:34.303Z,1.13
2023-05-12T17:18:03.022Z,1.23
2023-05-12T17:20:32.195Z,1.38
2023-05-12T17:23:02.639Z,1.20
2023-05-12T17:25:31.621Z,1.25
2023-05-12T17:28:00.626Z,1.38
2023-05-12T17:30:29.246Z,1.70
2023-05-12T17:32:58.638Z,1.13
2023-05-12T17:35:27.313Z,1.40
2023-05-12T17:37:56.101Z,1.10
2023-05-12T17:40:26.494Z,1.45
2023-05-12T17:42:55.607Z,1.40
2023-05-12T17:45:24.153Z,1.20
2023-05-12T17:47:53.693Z,1.52
2023-05-12T17:50:22.570Z,1.58
2023-05-12T17:52:51.017Z,1.88
2023-05-12T17:55:19.875Z,1.17
2023-05-12T17:57:51.107Z,1.60
2023-05-12T18:00:19.872Z,1.05
2023-05-12T18:02:48.482Z,1.27
2023-05-12T18:05:17.025Z,1.30
2023-05-12T18:07:46.030Z,1.83
2023-05-12T18:10:15.104Z,1.80
2023-05-12T18:12:44.080Z,1.38
2023-05-12T18:15:17.083Z,1.25
2023-05-12T18:17:46.110Z,1.38
2023-05-12T18:20:14.722Z,1.25
2023-05-12T18:22:43.154Z,1.33
2023-05-12T18:25:13.051Z,1.75
2023-05-12T18:27:42.328Z,1.33
2023-05-12T18:30:12.288Z,1.77
2023-05-12T18:32:42.732Z,1.48
2023-05-12T18:35:12.735Z,1.27
2023-05-12T18:37:44.386Z,1.63
2023-05-12T18:40:13.661Z,1.42
2023-05-12T18:42:44.164Z,1.73
2023-05-12T18:45:13.727Z,1.58
2023-05-12T18:47:45.379Z,1.50
2023-05-12T18:50:14.606Z,1.60
2023-05-12T18:52:44.186Z,1.58
2023-05-12T18:55:13.144Z,1.65
2023-05-12T18:57:41.520Z,1.83
2023-05-12T19:00:11.549Z,1.45
2023-05-12T19:02:42.451Z,1.67
2023-05-12T19:05:13.043Z,1.80
2023-05-12T19:07:41.502Z,1.60
2023-05-12T19:10:10.858Z,2.00
2023-05-12T19:12:39.212Z,1.60
2023-05-12T19:15:12.824Z,1.55
2023-05-12T19:17:41.401Z,1.77
2023-05-12T19:20:10.892Z,2.42
2023-05-12T19:22:43.021Z,2.05
2023-05-12T19:25:11.849Z,2.35
2023-05-12T19:27:41.525Z,1.88
2023-05-12T19:30:12.255Z,2.00
2023-05-12T19:32:42.447Z,1.60
2023-05-12T19:35:11.739Z,1.73
2023-05-12T19:37:45.658Z,2.22
2023-05-12T19:40:14.740Z,1.93
2023-05-12T19:42:43.133Z,2.15
2023-05-12T19:45:12.549Z,2.25
2023-05-12T19:47:41.502Z,3.20
2023-05-12T19:50:12.415Z,2.70
2023-05-12T19:52:42.824Z,2.78
2023-05-12T19:55:11.757Z,3.55
2023-05-12T19:57:40.636Z,2.58
2023-05-12T20:00:10.285Z,2.13
2023-05-12T20:02:42.969Z,2.35
2023-05-12T20:05:13.483Z,2.47
2023-05-12T20:07:43.745Z,2.70
2023-05-12T20:10:12.603Z,2.58
2023-05-12T20:12:41.526Z,2.50
2023-05-12T20:15:11.796Z,2.90
2023-05-12T20:17:40.600Z,2.72
2023-05-12T20:20:11.669Z,2.30
2023-05-12T20:25:33.252Z,2.92
2023-05-12T20:28:02.482Z,2.85
2023-05-12T20:30:32.649Z,3.13
2023-05-12T20:33:01.487Z,4.15
2023-05-12T20:35:32.964Z,3.30
2023-05-12T20:38:01.931Z,3.42
2023-05-12T20:40:33.596Z,3.80
2023-05-12T20:43:02.996Z,4.03
2023-05-12T20:45:31.531Z,4.10
2023-05-12T20:48:00.662Z,3.70
2023-05-12T20:50:29.327Z,3.40
2023-05-12T20:55:56.901Z,5.90
2023-05-12T20:58:26.775Z,3.88
2023-05-12T21:00:55.420Z,4.32
2023-05-12T21:03:25.911Z,3.90
2023-05-12T21:05:56.404Z,4.57
2023-05-12T21:08:56.261Z,4.47
2023-05-12T21:11:48.416Z,4.13
2023-05-12T21:14:17.096Z,5.03
2023-05-12T21:16:47.679Z,5.05
2023-05-12T21:19:19.655Z,5.57
2023-05-12T21:21:48.040Z,5.65
2023-05-12T21:24:17.809Z,5.85
2023-05-12T21:26:51.151Z,6.60
2023-05-12T21:29:21.622Z,5.63
2023-05-12T21:31:50.286Z,5.38
2023-05-12T21:34:19.287Z,5.93
2023-05-12T21:36:47.837Z,5.78
2023-05-12T21:39:17.206Z,6.15
2023-05-12T21:41:46.039Z,5.97
2023-05-12T21:44:17.400Z,5.20
2023-05-12T21:46:53.671Z,6.20
2023-05-12T21:58:46.467Z,5.72
2023-05-12T22:01:45.717Z,5.60
2023-05-12T22:06:52.720Z,6.20
2023-05-12T22:12:49.155Z,6.22
2023-05-12T22:15:29.951Z,7.00
2023-05-12T22:18:46.030Z,7.65
2023-05-12T22:21:25.933Z,8.45
2023-05-12T22:23:54.897Z,7.45
2023-05-12T22:26:28.828Z,8.40
2023-05-12T22:28:57.533Z,8.68
2023-05-12T22:31:26.154Z,8.02
2023-05-12T22:33:54.399Z,7.82
2023-05-12T22:36:24.563Z,7.80
2023-05-12T22:38:53.045Z,8.00
2023-05-12T22:41:21.489Z,8.10
2023-05-12T22:43:50.669Z,7.95
2023-05-12T22:46:19.337Z,9.60
2023-05-12T22:48:47.971Z,10.45
2023-05-12T22:51:18.617Z,9.30
2023-05-12T22:53:51.341Z,10.10
2023-05-12T22:56:20.375Z,9.63
2023-05-12T22:58:48.722Z,10.13
2023-05-12T23:01:18.822Z,11.45
2023-05-12T23:03:47.814Z,11.63
2023-05-12T23:06:17.216Z,11.70
2023-05-12T23:08:46.976Z,11.48
2023-05-12T23:11:17.186Z,10.75
2023-05-12T23:13:45.686Z,10.05
2023-05-12T23:16:14.269Z,9.52
2023-05-12T23:18:42.663Z,10.68
2023-05-12T23:21:11.537Z,12.25
2023-05-12T23:23:40.557Z,11.55
2023-05-12T23:26:14.135Z,11.43
2023-05-12T23:28:44.068Z,12.32
2023-05-12T23:31:12.891Z,12.23
2023-05-12T23:33:41.420Z,12.93
2023-05-12T23:36:10.776Z,12.30
2023-05-12T23:38:39.330Z,11.00
2023-05-12T23:41:08.209Z,11.55
2023-05-12T23:43:36.795Z,10.80
2023-05-12T23:46:06.732Z,11.18
2023-05-12T23:48:35.877Z,11.13
2023-05-12T23:51:04.325Z,12.18
2023-05-12T23:53:32.718Z,11.57
2023-05-12T23:56:01.680Z,12.20
2023-05-12T23:58:30.296Z,12.40
